sensor_id;sensor_type;location;lat;lon;timestamp;pressure;altitude;pressure_sealevel;temperature;humidity
66560;BME280;53413;49.878;8.142;2024-03-02T00:01:48;98797.59;;;3.25;100.00
66560;BME280;53413;49.878;8.142;2024-03-02T00:04:13;98791.00;;;3.13;100.00
66560;BME280;53413;49.878;8.142;2024-03-02T00:06:38;98797.25;;;3.06;100.00
66560;BME280;53413;49.878;8.142;2024-03-02T00:09:04;98799.22;;;2.96;100.00
66560;BME280;53413;49.878;8.142;2024-03-02T00:11:29;98805.44;;;2.89;100.00
66560;BME280;53413;49.878;8.142;2024-03-02T00:13:55;98801.28;;;2.83;100.00
66560;BME280;53413;49.878;8.142;2024-03-02T00:16:20;98797.19;;;2.74;100.00
66560;BME280;53413;49.878;8.142;2024-03-02T00:18:45;98804.31;;;2.66;100.00
66560;BME280;53413;49.878;8.142;2024-03-02T00:21:11;98801.97;;;2.55;100.00
66560;BME280;53413;49.878;8.142;2024-03-02T00:23:39;98797.03;;;2.46;100.00
66560;BME280;53413;49.878;8.142;2024-03-02T00:26:05;98801.59;;;2.36;100.00
66560;BME280;53413;49.878;8.142;2024-03-02T00:28:34;98801.75;;;2.30;100.00
66560;BME280;53413;49.878;8.142;2024-03-02T00:31:04;98807.06;;;2.24;100.00
66560;BME280;53413;49.878;8.142;2024-03-02T00:33:37;98806.31;;;2.19;100.00
66560;BME280;53413;49.878;8.142;2024-03-02T00:36:06;98809.75;;;2.19;100.00
66560;BME280;53413;49.878;8.142;2024-03-02T00:38:32;98815.69;;;2.23;100.00
66560;BME280;53413;49.878;8.142;2024-03-02T00:41:00;98807.06;;;2.24;100.00
66560;BME280;53413;49.878;8.142;2024-03-02T00:44:05;98808.84;;;2.22;100.00
66560;BME280;53413;49.878;8.142;2024-03-02T00:46:40;98798.50;;;2.22;100.00
66560;BME280;53413;49.878;8.142;2024-03-02T00:49:22;98806.97;;;2.27;100.00
66560;BME280;53413;49.878;8.142;2024-03-02T00:51:49;98806.75;;;2.36;100.00
66560;BME280;53413;49.878;8.142;2024-03-02T00:54:15;98804.75;;;2.47;100.00
66560;BME280;53413;49.878;8.142;2024-03-02T00:56:44;98801.78;;;2.65;100.00
66560;BME280;53413;49.878;8.142;2024-03-02T00:59:10;98800.66;;;2.73;100.00
66560;BME280;53413;49.878;8.142;2024-03-02T01:01:35;98800.59;;;2.76;100.00
66560;BME280;53413;49.878;8.142;2024-03-02T01:04:01;98799.75;;;2.76;100.00
66560;BME280;53413;49.878;8.142;2024-03-02T01:06:26;98789.38;;;2.77;100.00
66560;BME280;53413;49.878;8.142;2024-03-02T01:08:52;98790.19;;;2.80;100.00
66560;BME280;53413;49.878;8.142;2024-03-02T01:11:17;98785.63;;;2.88;100.00
66560;BME280;53413;49.878;8.142;2024-03-02T01:13:44;98785.50;;;2.92;100.00
66560;BME280;53413;49.878;8.142;2024-03-02T01:16:09;98782.09;;;2.92;100.00
66560;BME280;53413;49.878;8.142;2024-03-02T01:18:35;98790.63;;;2.96;100.00
66560;BME280;53413;49.878;8.142;2024-03-02T01:21:00;98787.81;;;3.03;100.00
66560;BME280;53413;49.878;8.142;2024-03-02T01:23:26;98802.22;;;3.14;100.00
66560;BME280;53413;49.878;8.142;2024-03-02T01:25:52;98786.47;;;3.21;100.00
66560;BME280;53413;49.878;8.142;2024-03-02T01:28:18;98783.66;;;3.29;100.00
66560;BME280;53413;49.878;8.142;2024-03-02T01:30:44;98779.09;;;3.37;100.00
66560;BME280;53413;49.878;8.142;2024-03-02T01:33:09;98777.88;;;3.51;100.00
66560;BME280;53413;49.878;8.142;2024-03-02T01:35:35;98770.72;;;3.59;100.00
66560;BME280;53413;49.878;8.142;2024-03-02T01:38:01;98773.28;;;3.59;100.00
66560;BME280;53413;49.878;8.142;2024-03-02T01:40:26;98770.75;;;3.58;100.00
66560;BME280;53413;49.878;8.142;2024-03-02T01:42:53;98763.13;;;3.53;100.00
66560;BME280;53413;49.878;8.142;2024-03-02T01:45:23;98758.97;;;3.47;100.00
66560;BME280;53413;49.878;8.142;2024-03-02T01:47:49;98770.47;;;3.37;100.00
66560;BME280;53413;49.878;8.142;2024-03-02T01:50:14;98769.72;;;3.33;100.00
66560;BME280;53413;49.878;8.142;2024-03-02T01:52:40;98774.16;;;3.30;100.00
66560;BME280;53413;49.878;8.142;2024-03-02T01:55:05;98775.00;;;3.30;100.00
66560;BME280;53413;49.878;8.142;2024-03-02T01:57:31;98773.53;;;3.20;100.00
66560;BME280;53413;49.878;8.142;2024-03-02T01:59:57;98765.25;;;3.08;100.00
66560;BME280;53413;49.878;8.142;2024-03-02T02:02:23;98773.25;;;2.99;100.00
66560;BME280;53413;49.878;8.142;2024-03-02T02:04:48;98768.25;;;2.93;100.00
66560;BME280;53413;49.878;8.142;2024-03-02T02:07:13;98766.59;;;2.90;100.00
66560;BME280;53413;49.878;8.142;2024-03-02T02:09:43;98768.22;;;2.95;100.00
66560;BME280;53413;49.878;8.142;2024-03-02T02:12:11;98763.72;;;3.01;100.00
66560;BME280;53413;49.878;8.142;2024-03-02T02:14:37;98764.41;;;3.08;100.00
66560;BME280;53413;49.878;8.142;2024-03-02T02:17:02;98755.78;;;3.07;100.00
66560;BME280;53413;49.878;8.142;2024-03-02T02:19:27;98753.19;;;3.07;100.00
66560;BME280;53413;49.878;8.142;2024-03-02T02:21:53;98749.69;;;3.10;100.00
66560;BME280;53413;49.878;8.142;2024-03-02T02:24:19;98752.09;;;3.16;100.00
66560;BME280;53413;49.878;8.142;2024-03-02T02:26:44;98750.34;;;3.17;100.00
66560;BME280;53413;49.878;8.142;2024-03-02T02:29:09;98747.00;;;3.13;100.00
66560;BME280;53413;49.878;8.142;2024-03-02T02:31:39;98742.06;;;3.05;100.00
66560;BME280;53413;49.878;8.142;2024-03-02T02:34:04;98746.53;;;2.99;100.00
66560;BME280;53413;49.878;8.142;2024-03-02T02:36:31;98747.59;;;2.91;100.00
66560;BME280;53413;49.878;8.142;2024-03-02T02:38:56;98740.75;;;2.89;100.00
66560;BME280;53413;49.878;8.142;2024-03-02T02:41:22;98739.00;;;2.89;100.00
66560;BME280;53413;49.878;8.142;2024-03-02T02:43:47;98729.34;;;2.96;100.00
66560;BME280;53413;49.878;8.142;2024-03-02T02:46:13;98737.91;;;2.98;100.00
66560;BME280;53413;49.878;8.142;2024-03-02T02:48:38;98730.97;;;3.00;100.00
66560;BME280;53413;49.878;8.142;2024-03-02T02:51:03;98723.06;;;3.05;100.00
66560;BME280;53413;49.878;8.142;2024-03-02T02:53:29;98716.88;;;3.11;100.00
66560;BME280;53413;49.878;8.142;2024-03-02T02:55:54;98716.78;;;3.14;100.00
66560;BME280;53413;49.878;8.142;2024-03-02T02:58:19;98721.06;;;3.15;100.00
66560;BME280;53413;49.878;8.142;2024-03-02T03:00:45;98718.50;;;3.15;100.00
66560;BME280;53413;49.878;8.142;2024-03-02T03:03:10;98713.31;;;3.15;100.00
66560;BME280;53413;49.878;8.142;2024-03-02T03:05:35;98732.41;;;3.11;100.00
66560;BME280;53413;49.878;8.142;2024-03-02T03:08:01;98706.59;;;3.07;100.00
66560;BME280;53413;49.878;8.142;2024-03-02T03:10:26;98710.19;;;3.03;100.00
66560;BME280;53413;49.878;8.142;2024-03-02T03:12:52;98713.75;;;2.99;100.00
66560;BME280;53413;49.878;8.142;2024-03-02T03:15:18;98720.81;;;2.94;100.00
66560;BME280;53413;49.878;8.142;2024-03-02T03:17:43;98719.25;;;2.87;100.00
66560;BME280;53413;49.878;8.142;2024-03-02T03:20:10;98713.47;;;2.77;100.00
66560;BME280;53413;49.878;8.142;2024-03-02T03:22:37;98713.72;;;2.68;100.00
66560;BME280;53413;49.878;8.142;2024-03-02T03:25:02;98717.38;;;2.60;100.00
66560;BME280;53413;49.878;8.142;2024-03-02T03:27:28;98716.69;;;2.54;100.00
66560;BME280;53413;49.878;8.142;2024-03-02T03:29:54;98710.84;;;2.47;100.00
66560;BME280;53413;49.878;8.142;2024-03-02T03:32:19;98713.41;;;2.47;100.00
66560;BME280;53413;49.878;8.142;2024-03-02T03:34:44;98712.34;;;2.56;100.00
66560;BME280;53413;49.878;8.142;2024-03-02T03:37:10;98713.72;;;2.68;100.00
66560;BME280;53413;49.878;8.142;2024-03-02T03:39:36;98715.97;;;2.82;100.00
66560;BME280;53413;49.878;8.142;2024-03-02T03:42:01;98716.41;;;2.96;100.00
66560;BME280;53413;49.878;8.142;2024-03-02T03:44:26;98711.16;;;2.99;100.00
66560;BME280;53413;49.878;8.142;2024-03-02T03:46:52;98714.69;;;2.97;100.00
66560;BME280;53413;49.878;8.142;2024-03-02T03:49:17;98713.94;;;2.93;100.00
66560;BME280;53413;49.878;8.142;2024-03-02T03:51:43;98718.41;;;2.86;100.00
66560;BME280;53413;49.878;8.142;2024-03-02T03:54:08;98710.69;;;2.85;100.00
66560;BME280;53413;49.878;8.142;2024-03-02T03:56:36;98716.72;;;2.85;100.00
66560;BME280;53413;49.878;8.142;2024-03-02T03:59:01;98723.53;;;2.88;100.00
66560;BME280;53413;49.878;8.142;2024-03-02T04:01:27;98729.53;;;2.90;100.00
66560;BME280;53413;49.878;8.142;2024-03-02T04:03:52;98722.66;;;2.89;100.00
66560;BME280;53413;49.878;8.142;2024-03-02T04:06:18;98723.41;;;2.92;100.00
66560;BME280;53413;49.878;8.142;2024-03-02T04:08:43;98725.16;;;2.92;100.00
66560;BME280;53413;49.878;8.142;2024-03-02T04:11:08;98719.31;;;2.85;100.00
66560;BME280;53413;49.878;8.142;2024-03-02T04:13:34;98719.50;;;2.77;100.00
66560;BME280;53413;49.878;8.142;2024-03-02T04:15:59;98711.88;;;2.73;100.00
66560;BME280;53413;49.878;8.142;2024-03-02T04:18:24;98710.38;;;2.64;100.00
66560;BME280;53413;49.878;8.142;2024-03-02T04:20:50;98719.22;;;2.55;100.00
66560;BME280;53413;49.878;8.142;2024-03-02T04:23:15;98712.47;;;2.50;100.00
66560;BME280;53413;49.878;8.142;2024-03-02T04:25:40;98723.88;;;2.42;100.00
66560;BME280;53413;49.878;8.142;2024-03-02T04:28:06;98730.81;;;2.40;100.00
66560;BME280;53413;49.878;8.142;2024-03-02T04:30:31;98727.59;;;2.32;100.00
66560;BME280;53413;49.878;8.142;2024-03-02T04:32:56;98731.38;;;2.19;100.00
66560;BME280;53413;49.878;8.142;2024-03-02T04:35:22;98735.91;;;2.09;100.00
66560;BME280;53413;49.878;8.142;2024-03-02T04:37:50;98732.72;;;1.97;100.00
66560;BME280;53413;49.878;8.142;2024-03-02T04:40:15;98732.09;;;1.88;100.00
66560;BME280;53413;49.878;8.142;2024-03-02T04:42:41;98734.91;;;1.78;100.00
66560;BME280;53413;49.878;8.142;2024-03-02T04:45:06;98739.41;;;1.70;100.00
66560;BME280;53413;49.878;8.142;2024-03-02T04:47:32;98738.69;;;1.63;100.00
66560;BME280;53413;49.878;8.142;2024-03-02T04:49:57;98744.91;;;1.54;100.00
66560;BME280;53413;49.878;8.142;2024-03-02T04:52:23;98743.34;;;1.47;100.00
66560;BME280;53413;49.878;8.142;2024-03-02T04:54:48;98745.16;;;1.42;100.00
66560;BME280;53413;49.878;8.142;2024-03-02T04:57:32;98741.78;;;1.38;100.00
66560;BME280;53413;49.878;8.142;2024-03-02T04:59:57;98752.22;;;1.34;100.00
66560;BME280;53413;49.878;8.142;2024-03-02T05:02:22;98753.16;;;1.31;100.00
66560;BME280;53413;49.878;8.142;2024-03-02T05:04:48;98761.03;;;1.23;100.00
66560;BME280;53413;49.878;8.142;2024-03-02T05:07:14;98767.22;;;1.15;100.00
66560;BME280;53413;49.878;8.142;2024-03-02T05:09:39;98770.78;;;1.09;100.00
66560;BME280;53413;49.878;8.142;2024-03-02T05:12:05;98779.25;;;1.16;100.00
66560;BME280;53413;49.878;8.142;2024-03-02T05:14:42;98776.19;;;1.39;100.00
66560;BME280;53413;49.878;8.142;2024-03-02T05:17:08;98775.00;;;1.56;100.00
66560;BME280;53413;49.878;8.142;2024-03-02T05:19:33;98780.72;;;1.70;100.00
66560;BME280;53413;49.878;8.142;2024-03-02T05:21:58;98771.78;;;1.85;100.00
66560;BME280;53413;49.878;8.142;2024-03-02T05:24:24;98778.28;;;2.02;100.00
66560;BME280;53413;49.878;8.142;2024-03-02T05:26:49;98773.69;;;2.14;100.00
66560;BME280;53413;49.878;8.142;2024-03-02T05:29:14;98767.31;;;2.28;100.00
66560;BME280;53413;49.878;8.142;2024-03-02T05:31:40;98774.84;;;2.37;100.00
66560;BME280;53413;49.878;8.142;2024-03-02T05:34:05;98771.25;;;2.43;100.00
66560;BME280;53413;49.878;8.142;2024-03-02T05:36:31;98772.91;;;2.47;100.00
66560;BME280;53413;49.878;8.142;2024-03-02T05:38:57;98771.88;;;2.53;100.00
66560;BME280;53413;49.878;8.142;2024-03-02T05:41:22;98778.59;;;2.60;100.00
66560;BME280;53413;49.878;8.142;2024-03-02T05:43:47;98774.81;;;2.73;100.00
66560;BME280;53413;49.878;8.142;2024-03-02T05:46:13;98765.75;;;2.90;100.00
66560;BME280;53413;49.878;8.142;2024-03-02T05:48:38;98765.44;;;3.01;100.00
66560;BME280;53413;49.878;8.142;2024-03-02T05:51:04;98760.88;;;3.11;100.00
66560;BME280;53413;49.878;8.142;2024-03-02T05:53:29;98760.50;;;3.25;100.00
66560;BME280;53413;49.878;8.142;2024-03-02T05:55:54;98752.47;;;3.34;100.00
66560;BME280;53413;49.878;8.142;2024-03-02T05:58:23;98758.25;;;3.42;100.00
66560;BME280;53413;49.878;8.142;2024-03-02T06:01:11;98760.63;;;3.50;100.00
66560;BME280;53413;49.878;8.142;2024-03-02T06:03:36;98767.31;;;3.57;100.00
66560;BME280;53413;49.878;8.142;2024-03-02T06:06:02;98767.16;;;3.62;100.00
66560;BME280;53413;49.878;8.142;2024-03-02T06:08:28;98762.78;;;3.65;100.00
66560;BME280;53413;49.878;8.142;2024-03-02T06:10:56;98759.22;;;3.68;100.00
66560;BME280;53413;49.878;8.142;2024-03-02T06:13:21;98757.31;;;3.73;100.00
66560;BME280;53413;49.878;8.142;2024-03-02T06:15:47;98765.00;;;3.76;100.00
66560;BME280;53413;49.878;8.142;2024-03-02T06:18:12;98750.47;;;3.72;100.00
66560;BME280;53413;49.878;8.142;2024-03-02T06:20:37;98761.59;;;3.76;100.00
66560;BME280;53413;49.878;8.142;2024-03-02T06:23:04;98756.41;;;3.76;100.00
66560;BME280;53413;49.878;8.142;2024-03-02T06:25:29;98751.69;;;3.60;100.00
66560;BME280;53413;49.878;8.142;2024-03-02T06:27:54;98755.50;;;3.48;100.00
66560;BME280;53413;49.878;8.142;2024-03-02T06:30:20;98764.25;;;3.44;100.00
66560;BME280;53413;49.878;8.142;2024-03-02T06:32:45;98766.56;;;3.53;100.00
66560;BME280;53413;49.878;8.142;2024-03-02T06:35:10;98767.81;;;3.70;100.00
66560;BME280;53413;49.878;8.142;2024-03-02T06:37:38;98772.47;;;3.87;100.00
66560;BME280;53413;49.878;8.142;2024-03-02T06:40:05;98772.84;;;4.03;100.00
66560;BME280;53413;49.878;8.142;2024-03-02T06:42:33;98774.25;;;4.13;100.00
66560;BME280;53413;49.878;8.142;2024-03-02T06:44:59;98785.22;;;4.22;100.00
66560;BME280;53413;49.878;8.142;2024-03-02T06:47:24;98775.59;;;4.25;100.00
66560;BME280;53413;49.878;8.142;2024-03-02T06:49:49;98785.66;;;4.35;100.00
66560;BME280;53413;49.878;8.142;2024-03-02T06:52:15;98777.66;;;4.42;100.00
66560;BME280;53413;49.878;8.142;2024-03-02T06:54:40;98783.25;;;4.55;100.00
66560;BME280;53413;49.878;8.142;2024-03-02T06:57:05;98774.16;;;4.69;100.00
66560;BME280;53413;49.878;8.142;2024-03-02T06:59:30;98772.16;;;4.77;100.00
66560;BME280;53413;49.878;8.142;2024-03-02T07:01:56;98772.63;;;4.88;100.00
66560;BME280;53413;49.878;8.142;2024-03-02T07:04:22;98772.00;;;5.07;100.00
66560;BME280;53413;49.878;8.142;2024-03-02T07:06:47;98768.78;;;5.24;100.00
66560;BME280;53413;49.878;8.142;2024-03-02T07:09:12;98768.94;;;5.43;100.00
66560;BME280;53413;49.878;8.142;2024-03-02T07:11:38;98766.50;;;5.62;100.00
66560;BME280;53413;49.878;8.142;2024-03-02T07:14:03;98771.84;;;5.81;100.00
66560;BME280;53413;49.878;8.142;2024-03-02T07:16:28;98770.53;;;5.93;100.00
66560;BME280;53413;49.878;8.142;2024-03-02T07:18:55;98775.97;;;6.09;100.00
66560;BME280;53413;49.878;8.142;2024-03-02T07:21:22;98783.97;;;6.27;100.00
66560;BME280;53413;49.878;8.142;2024-03-02T07:23:48;98775.78;;;6.36;100.00
66560;BME280;53413;49.878;8.142;2024-03-02T07:26:14;98782.06;;;6.53;100.00
66560;BME280;53413;49.878;8.142;2024-03-02T07:28:43;98784.88;;;6.69;100.00
66560;BME280;53413;49.878;8.142;2024-03-02T07:31:09;98786.28;;;6.76;100.00
66560;BME280;53413;49.878;8.142;2024-03-02T07:33:35;98789.44;;;6.84;100.00
66560;BME280;53413;49.878;8.142;2024-03-02T07:36:01;98791.84;;;6.89;100.00
66560;BME280;53413;49.878;8.142;2024-03-02T07:38:28;98787.97;;;6.98;100.00
66560;BME280;53413;49.878;8.142;2024-03-02T07:40:53;98791.94;;;7.06;100.00
66560;BME280;53413;49.878;8.142;2024-03-02T07:43:19;98790.91;;;7.11;100.00
66560;BME280;53413;49.878;8.142;2024-03-02T07:45:46;98789.66;;;7.19;100.00
66560;BME280;53413;49.878;8.142;2024-03-02T07:48:11;98795.44;;;7.26;100.00
66560;BME280;53413;49.878;8.142;2024-03-02T07:50:37;98797.66;;;7.35;100.00
66560;BME280;53413;49.878;8.142;2024-03-02T07:53:04;98805.19;;;7.42;100.00
66560;BME280;53413;49.878;8.142;2024-03-02T07:55:30;98810.00;;;7.51;100.00
66560;BME280;53413;49.878;8.142;2024-03-02T07:57:59;98802.25;;;7.68;100.00
66560;BME280;53413;49.878;8.142;2024-03-02T08:00:25;98803.34;;;8.01;100.00
66560;BME280;53413;49.878;8.142;2024-03-02T08:02:51;98813.31;;;8.29;100.00
66560;BME280;53413;49.878;8.142;2024-03-02T08:05:17;98806.47;;;8.63;100.00
66560;BME280;53413;49.878;8.142;2024-03-02T08:07:44;98815.94;;;9.01;100.00
66560;BME280;53413;49.878;8.142;2024-03-02T08:10:10;98807.66;;;9.27;100.00
66560;BME280;53413;49.878;8.142;2024-03-02T08:12:35;98815.69;;;9.39;100.00
66560;BME280;53413;49.878;8.142;2024-03-02T08:15:01;98810.59;;;9.54;100.00
66560;BME280;53413;49.878;8.142;2024-03-02T08:17:26;98804.69;;;9.82;100.00
66560;BME280;53413;49.878;8.142;2024-03-02T08:19:52;98807.50;;;9.95;100.00
66560;BME280;53413;49.878;8.142;2024-03-02T08:22:18;98810.88;;;9.97;100.00
66560;BME280;53413;49.878;8.142;2024-03-02T08:24:43;98809.88;;;9.84;100.00
66560;BME280;53413;49.878;8.142;2024-03-02T08:27:08;98811.09;;;9.61;100.00
66560;BME280;53413;49.878;8.142;2024-03-02T08:29:34;98820.28;;;9.52;100.00
66560;BME280;53413;49.878;8.142;2024-03-02T08:32:00;98814.00;;;9.38;100.00
66560;BME280;53413;49.878;8.142;2024-03-02T08:34:25;98801.41;;;9.63;100.00
66560;BME280;53413;49.878;8.142;2024-03-02T08:36:51;98800.59;;;9.94;100.00
66560;BME280;53413;49.878;8.142;2024-03-02T08:39:16;98809.00;;;10.31;100.00
66560;BME280;53413;49.878;8.142;2024-03-02T08:41:44;98793.91;;;10.67;100.00
66560;BME280;53413;49.878;8.142;2024-03-02T08:44:10;98803.75;;;11.23;100.00
66560;BME280;53413;49.878;8.142;2024-03-02T08:46:35;98810.38;;;11.58;100.00
66560;BME280;53413;49.878;8.142;2024-03-02T08:49:01;98805.75;;;11.90;100.00
66560;BME280;53413;49.878;8.142;2024-03-02T08:51:27;98811.41;;;12.26;100.00
66560;BME280;53413;49.878;8.142;2024-03-02T08:53:52;98816.28;;;12.45;100.00
66560;BME280;53413;49.878;8.142;2024-03-02T08:56:17;98813.41;;;12.62;99.12
66560;BME280;53413;49.878;8.142;2024-03-02T08:58:43;98819.94;;;12.70;97.94
66560;BME280;53413;49.878;8.142;2024-03-02T09:01:10;98815.91;;;12.91;94.78
66560;BME280;53413;49.878;8.142;2024-03-02T09:03:35;98816.41;;;12.84;93.73
66560;BME280;53413;49.878;8.142;2024-03-02T09:06:01;98819.47;;;12.90;92.97
66560;BME280;53413;49.878;8.142;2024-03-02T09:08:26;98812.41;;;12.78;92.58
66560;BME280;53413;49.878;8.142;2024-03-02T09:10:52;98813.66;;;12.85;93.35
66560;BME280;53413;49.878;8.142;2024-03-02T09:13:18;98812.41;;;12.91;92.19
66560;BME280;53413;49.878;8.142;2024-03-02T09:15:43;98807.53;;;12.72;91.14
66560;BME280;53413;49.878;8.142;2024-03-02T09:18:09;98809.28;;;12.58;91.07
66560;BME280;53413;49.878;8.142;2024-03-02T09:20:35;98811.91;;;12.45;90.52
66560;BME280;53413;49.878;8.142;2024-03-02T09:23:00;98806.94;;;12.41;91.91
66560;BME280;53413;49.878;8.142;2024-03-02T09:25:25;98804.78;;;12.60;90.69
66560;BME280;53413;49.878;8.142;2024-03-02T09:27:51;98804.16;;;12.70;91.27
66560;BME280;53413;49.878;8.142;2024-03-02T09:30:16;98813.47;;;12.88;90.15
66560;BME280;53413;49.878;8.142;2024-03-02T09:32:41;98812.91;;;12.70;90.04
66560;BME280;53413;49.878;8.142;2024-03-02T09:35:07;98808.03;;;12.64;89.79
66560;BME280;53413;49.878;8.142;2024-03-02T09:37:33;98815.09;;;12.51;89.73
66560;BME280;53413;49.878;8.142;2024-03-02T09:39:58;98807.31;;;12.35;90.37
66560;BME280;53413;49.878;8.142;2024-03-02T09:42:24;98808.13;;;12.22;90.16
66560;BME280;53413;49.878;8.142;2024-03-02T09:44:51;98810.28;;;12.15;90.83
66560;BME280;53413;49.878;8.142;2024-03-02T09:47:17;98807.31;;;12.35;91.59
66560;BME280;53413;49.878;8.142;2024-03-02T09:49:42;98807.47;;;12.46;90.81
66560;BME280;53413;49.878;8.142;2024-03-02T09:52:10;98800.81;;;12.68;89.54
66560;BME280;53413;49.878;8.142;2024-03-02T09:54:36;98803.72;;;13.16;87.48
66560;BME280;53413;49.878;8.142;2024-03-02T09:57:01;98802.56;;;13.46;85.56
66560;BME280;53413;49.878;8.142;2024-03-02T09:59:27;98802.03;;;13.54;84.16
66560;BME280;53413;49.878;8.142;2024-03-02T10:02:00;98799.16;;;13.70;84.05
66560;BME280;53413;49.878;8.142;2024-03-02T10:04:27;98790.03;;;14.00;82.94
66560;BME280;53413;49.878;8.142;2024-03-02T10:07:12;98784.16;;;14.56;81.03
66560;BME280;53413;49.878;8.142;2024-03-02T10:09:38;98795.97;;;15.11;78.10
66560;BME280;53413;49.878;8.142;2024-03-02T10:12:04;98790.22;;;15.28;76.82
66560;BME280;53413;49.878;8.142;2024-03-02T10:14:30;98785.44;;;15.56;74.59
66560;BME280;53413;49.878;8.142;2024-03-02T10:17:01;98789.75;;;15.46;72.12
66560;BME280;53413;49.878;8.142;2024-03-02T10:19:27;98789.03;;;15.21;72.55
66560;BME280;53413;49.878;8.142;2024-03-02T10:21:57;98792.44;;;14.76;74.26
66560;BME280;53413;49.878;8.142;2024-03-02T10:24:23;98786.53;;;14.48;75.63
66560;BME280;53413;49.878;8.142;2024-03-02T10:26:50;98784.88;;;14.23;77.33
66560;BME280;53413;49.878;8.142;2024-03-02T10:29:16;98779.81;;;14.20;78.29
66560;BME280;53413;49.878;8.142;2024-03-02T10:31:44;98789.34;;;14.09;78.45
66560;BME280;53413;49.878;8.142;2024-03-02T10:34:11;98783.28;;;13.96;80.26
66560;BME280;53413;49.878;8.142;2024-03-02T10:36:37;98785.41;;;13.91;81.62
66560;BME280;53413;49.878;8.142;2024-03-02T10:39:06;98775.75;;;13.78;81.85
66560;BME280;53413;49.878;8.142;2024-03-02T10:41:36;98780.22;;;13.65;81.99
66560;BME280;53413;49.878;8.142;2024-03-02T10:44:06;98781.31;;;13.49;82.56
66560;BME280;53413;49.878;8.142;2024-03-02T10:46:32;98776.44;;;13.43;82.92
66560;BME280;53413;49.878;8.142;2024-03-02T10:48:59;98774.44;;;13.60;83.52
66560;BME280;53413;49.878;8.142;2024-03-02T10:51:26;98770.94;;;13.72;82.71
66560;BME280;53413;49.878;8.142;2024-03-02T10:53:53;98764.38;;;13.78;82.72
66560;BME280;53413;49.878;8.142;2024-03-02T10:56:28;98766.28;;;13.76;81.51
66560;BME280;53413;49.878;8.142;2024-03-02T10:59:09;98759.94;;;13.78;81.20
66560;BME280;53413;49.878;8.142;2024-03-02T11:01:42;98759.94;;;13.78;81.79
66560;BME280;53413;49.878;8.142;2024-03-02T11:04:09;98756.91;;;13.84;81.92
66560;BME280;53413;49.878;8.142;2024-03-02T11:06:38;98756.75;;;13.99;82.43
66560;BME280;53413;49.878;8.142;2024-03-02T11:09:07;98761.00;;;14.37;81.51
66560;BME280;53413;49.878;8.142;2024-03-02T11:11:40;98756.28;;;14.65;80.04
66560;BME280;53413;49.878;8.142;2024-03-02T11:14:12;98757.56;;;14.84;78.37
66560;BME280;53413;49.878;8.142;2024-03-02T11:16:38;98745.44;;;14.92;77.12
66560;BME280;53413;49.878;8.142;2024-03-02T11:19:10;98748.13;;;15.15;76.18
66560;BME280;53413;49.878;8.142;2024-03-02T11:21:36;98747.78;;;15.43;75.72
66560;BME280;53413;49.878;8.142;2024-03-02T11:26:47;98741.53;;;15.32;74.73
66560;BME280;53413;49.878;8.142;2024-03-02T11:32:04;98736.34;;;15.42;74.55
66560;BME280;53413;49.878;8.142;2024-03-02T11:34:36;98730.09;;;15.54;73.02
66560;BME280;53413;49.878;8.142;2024-03-02T11:37:04;98730.34;;;15.63;72.26
66560;BME280;53413;49.878;8.142;2024-03-02T11:39:31;98729.28;;;15.54;72.75
66560;BME280;53413;49.878;8.142;2024-03-02T11:41:57;98722.56;;;14.93;73.93
66560;BME280;53413;49.878;8.142;2024-03-02T11:44:26;98729.09;;;14.29;75.20
66560;BME280;53413;49.878;8.142;2024-03-02T11:46:52;98719.16;;;13.60;77.53
66560;BME280;53413;49.878;8.142;2024-03-02T11:49:36;98723.41;;;13.23;80.79
66560;BME280;53413;49.878;8.142;2024-03-02T11:52:04;98721.53;;;13.13;81.15
66560;BME280;53413;49.878;8.142;2024-03-02T11:54:32;98719.47;;;13.05;82.69
66560;BME280;53413;49.878;8.142;2024-03-02T11:57:01;98715.97;;;13.04;83.74
66560;BME280;53413;49.878;8.142;2024-03-02T11:59:28;98714.41;;;13.02;84.85
66560;BME280;53413;49.878;8.142;2024-03-02T12:01:54;98700.19;;;13.04;84.80
66560;BME280;53413;49.878;8.142;2024-03-02T12:04:21;98695.66;;;12.93;85.30
66560;BME280;53413;49.878;8.142;2024-03-02T12:06:54;98693.06;;;12.81;85.38
66560;BME280;53413;49.878;8.142;2024-03-02T12:09:21;98689.47;;;12.94;84.98
66560;BME280;53413;49.878;8.142;2024-03-02T12:11:46;98680.53;;;12.97;84.62
66560;BME280;53413;49.878;8.142;2024-03-02T12:14:12;98681.91;;;13.03;85.19
66560;BME280;53413;49.878;8.142;2024-03-02T12:16:44;98680.72;;;13.20;84.08
66560;BME280;53413;49.878;8.142;2024-03-02T12:19:09;98675.72;;;13.41;83.45
66560;BME280;53413;49.878;8.142;2024-03-02T12:21:35;98682.94;;;13.63;82.29
66560;BME280;53413;49.878;8.142;2024-03-02T12:24:01;98680.22;;;13.65;80.36
66560;BME280;53413;49.878;8.142;2024-03-02T12:26:27;98681.47;;;13.59;79.23
66560;BME280;53413;49.878;8.142;2024-03-02T12:28:53;98675.88;;;13.64;79.22
66560;BME280;53413;49.878;8.142;2024-03-02T12:31:19;98670.47;;;13.41;80.17
66560;BME280;53413;49.878;8.142;2024-03-02T12:33:44;98672.69;;;13.21;79.81
66560;BME280;53413;49.878;8.142;2024-03-02T12:36:11;98667.03;;;13.15;79.94
66560;BME280;53413;49.878;8.142;2024-03-02T12:38:43;98665.25;;;13.02;80.87
66560;BME280;53413;49.878;8.142;2024-03-02T12:41:08;98675.41;;;12.83;81.19
66560;BME280;53413;49.878;8.142;2024-03-02T12:43:34;98669.81;;;12.61;82.17
66560;BME280;53413;49.878;8.142;2024-03-02T12:45:59;98664.78;;;12.45;84.17
66560;BME280;53413;49.878;8.142;2024-03-02T12:48:25;98675.16;;;12.34;84.97
66560;BME280;53413;49.878;8.142;2024-03-02T12:50:50;98662.47;;;12.41;85.46
66560;BME280;53413;49.878;8.142;2024-03-02T12:53:16;98665.41;;;12.49;84.67
66560;BME280;53413;49.878;8.142;2024-03-02T12:55:44;98665.84;;;12.69;81.69
66560;BME280;53413;49.878;8.142;2024-03-02T12:58:19;98654.22;;;13.10;80.69
66560;BME280;53413;49.878;8.142;2024-03-02T13:00:46;98646.34;;;13.47;79.60
66560;BME280;53413;49.878;8.142;2024-03-02T13:03:11;98648.09;;;13.60;76.66